Wroxall, United Kingdom
Current Conditions -  °F | °C
As of 8:20 AM on Sunday 26 Oct 2014 (Local Time) from EGBB Reporting Station
Overcast Overcast  
Wind Chill: 12°   Ceiling: 3200
Heat Index: 12°   Visibility: 6mi
Dew Point:   Wind: 9mph
Humidity: 77%   Direction: 200°SSW
Pressure: 30.06"   Gusts: NA
Location:  52.34°N, 1.67°W
Report Text: EGBB 260720Z 20008KT 170V240 9999 OVC032 12/08 Q1018
Loading
Personal Weather Stations






























Interactive Weather Map
Tropical Storm Tracking
New forecast layout! Learn more

10-Day Weather Forecast

Advertisements
Track Severe Weather on mobile